Terminal Aerodrome Forecast
Issued by NWS

Current Version | Previous Version | Graphics & Text | Print | Product List | Glossary On
Versions: 1 2 3 4 5 6 7 8 9 10 11 12 13 14 15 16 17 18 19 20 21 22
000
FTUS41 KPBZ 011702 AAA
TAFMGW
TAF AMD
KMGW 011702Z 0117/0212 33004KT 6SM BR OVC004
     FM012100 36006KT P6SM VCSH BKN022=

USA.gov is the U.S. government's official web portal to all federal, state and local government web resources and services.